createdAt,value
2019-06-15T00:00:42.976Z,100526.98
2019-06-15T00:05:48.447Z,100552.60
2019-06-15T00:10:53.924Z,100530.91
2019-06-15T00:15:59.337Z,100524.50
2019-06-15T00:21:04.774Z,100510.17
2019-06-15T00:26:10.198Z,100507.30
2019-06-15T00:31:15.687Z,100500.69
2019-06-15T00:36:21.117Z,100476.45
2019-06-15T00:41:26.637Z,100466.13
2019-06-15T00:46:32.161Z,100453.19
2019-06-15T00:51:37.727Z,100445.27
2019-06-15T00:56:43.149Z,100444.12
2019-06-15T01:01:48.673Z,100449.97
2019-06-15T01:06:54.132Z,100443.52
2019-06-15T01:11:59.613Z,100439.25
2019-06-15T01:17:05.038Z,100432.92
2019-06-15T01:22:10.523Z,100428.27
2019-06-15T01:27:15.949Z,100433.28
2019-06-15T01:32:21.448Z,100415.52
2019-06-15T01:37:26.987Z,100418.44
2019-06-15T01:42:32.396Z,100411.43
2019-06-15T01:47:37.859Z,100410.30
2019-06-15T01:52:43.370Z,100425.84
2019-06-15T01:57:48.954Z,100422.48
2019-06-15T02:02:54.518Z,100412.41
2019-06-15T02:08:00.078Z,100426.00
2019-06-15T02:13:05.669Z,100434.98
2019-06-15T02:18:11.107Z,100436.13
2019-06-15T02:23:16.798Z,100432.55
2019-06-15T02:28:22.396Z,100433.88
2019-06-15T02:33:28.115Z,100423.90
2019-06-15T02:38:33.679Z,100388.61
2019-06-15T02:43:39.121Z,100345.18
2019-06-15T02:48:44.549Z,100323.71
2019-06-15T02:53:50.123Z,100324.97
2019-06-15T02:58:55.758Z,100343.25
2019-06-15T03:04:01.182Z,100344.70
2019-06-15T03:09:07.385Z,100347.45
2019-06-15T03:14:12.869Z,100345.16
2019-06-15T03:19:18.453Z,100364.47
2019-06-15T03:24:23.926Z,100378.50
2019-06-15T03:29:29.379Z,100381.69
2019-06-15T03:34:34.919Z,100407.08
2019-06-15T03:39:40.420Z,100440.62
2019-06-15T03:44:45.924Z,100444.98
2019-06-15T03:49:51.361Z,100445.59
2019-06-15T03:54:56.851Z,100439.57
2019-06-15T04:00:02.304Z,100440.57
2019-06-15T04:05:07.826Z,100448.55
2019-06-15T04:10:13.260Z,100455.55
2019-06-15T04:15:18.803Z,100463.77
2019-06-15T04:20:24.286Z,100470.40
2019-06-15T04:25:29.725Z,100463.22
2019-06-15T04:30:35.234Z,100482.48
2019-06-15T04:35:40.699Z,100493.41
2019-06-15T04:40:46.133Z,100477.12
2019-06-15T04:45:51.637Z,100492.88
2019-06-15T04:50:57.168Z,100493.08
2019-06-15T04:56:02.637Z,100498.30
2019-06-15T05:01:08.088Z,100502.97
2019-06-15T05:06:13.565Z,100521.61
2019-06-15T05:11:19.227Z,100521.80
2019-06-15T05:16:24.653Z,100528.86
2019-06-15T05:21:30.080Z,100526.47
2019-06-15T05:26:35.578Z,100539.41
2019-06-15T05:31:41.029Z,100524.28
2019-06-15T05:36:46.707Z,100510.75
2019-06-15T05:41:52.260Z,100504.14
2019-06-15T05:46:58.066Z,100503.09
2019-06-15T05:52:03.515Z,100501.69
2019-06-15T05:57:20.902Z,100508.88
2019-06-15T06:02:16.282Z,100509.89
2019-06-15T06:07:21.777Z,100511.19
2019-06-15T06:12:28.922Z,100524.63
2019-06-15T06:17:34.461Z,100536.43
2019-06-15T06:22:39.930Z,100543.38
2019-06-15T06:27:45.400Z,100561.41
2019-06-15T06:32:50.989Z,100573.23
2019-06-15T06:37:56.632Z,100569.18
2019-06-15T06:43:02.192Z,100560.73
2019-06-15T06:48:07.765Z,100562.12
2019-06-15T06:53:13.482Z,100566.80
2019-06-15T06:58:19.204Z,100574.99
2019-06-15T07:03:24.989Z,100567.88
2019-06-15T07:08:30.776Z,100563.77
2019-06-15T07:13:36.480Z,100565.23
2019-06-15T07:18:42.362Z,100561.73
2019-06-15T07:23:48.127Z,100556.92
2019-06-15T07:28:53.888Z,100549.45
2019-06-15T07:33:59.615Z,100559.63
2019-06-15T07:39:06.063Z,100554.86
2019-06-15T07:44:11.793Z,100557.17
2019-06-15T07:49:17.561Z,100560.17
2019-06-15T07:54:23.308Z,100577.24
2019-06-15T07:59:29.210Z,100593.50
2019-06-15T08:04:34.950Z,100605.52
2019-06-15T08:09:40.751Z,100617.63
2019-06-15T08:14:46.554Z,100625.84
2019-06-15T08:19:52.310Z,100629.13
2019-06-15T08:24:58.013Z,100622.47
2019-06-15T08:30:03.751Z,100605.83
2019-06-15T08:35:09.475Z,100610.42
2019-06-15T08:40:15.243Z,100620.16
2019-06-15T08:45:20.968Z,100634.12
2019-06-15T08:50:26.660Z,100651.75
2019-06-15T08:55:32.425Z,100669.52
2019-06-15T09:00:38.150Z,100681.67
2019-06-15T09:05:43.924Z,100682.26
2019-06-15T09:10:49.653Z,100700.34
2019-06-15T09:15:55.543Z,100717.69
2019-06-15T09:21:01.259Z,100732.55
2019-06-15T09:26:06.957Z,100734.22
2019-06-15T09:31:12.697Z,100736.22
2019-06-15T09:36:18.481Z,100721.16
2019-06-15T09:41:24.239Z,100719.78
2019-06-15T09:46:29.950Z,100727.53
2019-06-15T09:51:35.763Z,100738.67
2019-06-15T09:56:41.535Z,100744.44
2019-06-15T10:01:47.273Z,100755.19
2019-06-15T10:06:53.107Z,100757.55
2019-06-15T10:11:58.988Z,100767.86
2019-06-15T10:17:04.780Z,100778.52
2019-06-15T10:22:10.543Z,100783.02
2019-06-15T10:27:16.379Z,100782.53
2019-06-15T10:32:22.138Z,100788.95
2019-06-15T10:37:27.830Z,100793.06
2019-06-15T10:42:33.600Z,100806.04
2019-06-15T10:47:39.361Z,100807.81
2019-06-15T10:52:45.193Z,100820.24
2019-06-15T10:57:50.948Z,100819.53
2019-06-15T11:02:56.867Z,100824.98
2019-06-15T11:08:02.646Z,100827.93
2019-06-15T11:13:08.344Z,100836.52
2019-06-15T11:18:14.052Z,100829.63
2019-06-15T11:23:19.898Z,100831.73
2019-06-15T11:28:25.612Z,100824.30
2019-06-15T11:33:31.475Z,100824.32
2019-06-15T11:38:37.204Z,100843.80
2019-06-15T11:43:43.151Z,100845.41
2019-06-15T11:48:48.937Z,100853.50
2019-06-15T11:53:54.654Z,100863.41
2019-06-15T11:59:00.498Z,100874.75
2019-06-15T12:04:06.235Z,100876.98
2019-06-15T12:09:12.115Z,100874.96
2019-06-15T12:14:18.363Z,100869.33
2019-06-15T12:19:24.610Z,100873.35
2019-06-15T12:24:30.525Z,100868.31
2019-06-15T12:29:36.366Z,100876.26
2019-06-15T12:34:42.318Z,100869.66
2019-06-15T12:39:48.466Z,100867.92
2019-06-15T12:44:54.257Z,100863.48
2019-06-15T12:50:00.443Z,100874.74
2019-06-15T12:55:06.888Z,100879.51
2019-06-15T13:00:13.248Z,100891.23
2019-06-15T13:05:19.169Z,100889.25
2019-06-15T13:10:25.093Z,100879.53
2019-06-15T13:15:30.998Z,100884.22
2019-06-15T13:20:37.248Z,100884.73
2019-06-15T13:25:43.374Z,100890.70
2019-06-15T13:30:49.479Z,100902.02
2019-06-15T13:35:55.471Z,100893.83
2019-06-15T13:41:01.442Z,100897.47
2019-06-15T13:46:07.624Z,100901.66
2019-06-15T13:51:13.723Z,100902.20
2019-06-15T13:56:19.626Z,100908.22
2019-06-15T14:01:34.165Z,100915.94
2019-06-15T14:06:32.869Z,100912.09
2019-06-15T14:11:38.582Z,100909.88
2019-06-15T14:16:44.295Z,100911.73
2019-06-15T14:21:50.109Z,100924.62
2019-06-15T14:26:55.936Z,100919.11
2019-06-15T14:32:02.255Z,100910.57
2019-06-15T14:37:08.117Z,100914.22
2019-06-15T14:42:13.890Z,100912.30
2019-06-15T14:47:19.777Z,100916.00
2019-06-15T14:52:25.576Z,100915.68
2019-06-15T14:57:31.461Z,100925.35
2019-06-15T15:02:38.087Z,100927.52
2019-06-15T15:07:43.969Z,100924.55
2019-06-15T15:12:49.863Z,100924.70
2019-06-15T15:17:57.773Z,100916.98
2019-06-15T15:23:03.074Z,100920.64
2019-06-15T15:28:08.885Z,100928.44
2019-06-15T15:33:14.598Z,100926.22
2019-06-15T15:38:20.334Z,100921.52
2019-06-15T15:43:26.476Z,100916.50
2019-06-15T15:48:32.326Z,100927.36
2019-06-15T15:53:38.038Z,100919.00
2019-06-15T15:58:43.755Z,100907.58
2019-06-15T16:03:49.458Z,100905.48
2019-06-15T16:08:56.919Z,100907.75
2019-06-15T16:14:02.834Z,100910.25
2019-06-15T16:19:08.575Z,100917.84
2019-06-15T16:24:16.478Z,100920.09
2019-06-15T16:29:21.722Z,100909.78
2019-06-15T16:34:27.153Z,100913.75
2019-06-15T16:39:32.870Z,100910.58
2019-06-15T16:44:38.605Z,100906.36
2019-06-15T16:49:46.456Z,100904.80
2019-06-15T16:54:51.682Z,100908.33
2019-06-15T16:59:57.490Z,100912.56
2019-06-15T17:05:02.982Z,100913.97
2019-06-15T17:10:08.787Z,100905.86
2019-06-15T17:15:16.893Z,100911.76
2019-06-15T17:20:27.427Z,100908.30
2019-06-15T17:25:33.153Z,100914.59
2019-06-15T17:30:38.592Z,100908.11
2019-06-15T17:35:56.101Z,100905.91
2019-06-15T17:40:51.265Z,100912.59
2019-06-15T17:45:56.780Z,100909.60
2019-06-15T17:51:02.263Z,100908.86
2019-06-15T17:56:07.710Z,100913.39
2019-06-15T18:01:13.341Z,100910.50
2019-06-15T18:06:18.901Z,100913.02
2019-06-15T18:11:26.215Z,100912.02
2019-06-15T18:16:31.508Z,100915.68
2019-06-15T18:21:40.899Z,100925.23
2019-06-15T18:26:44.156Z,100924.19
2019-06-15T18:31:49.578Z,100920.41
2019-06-15T18:36:56.151Z,100914.22
2019-06-15T18:42:01.791Z,100913.54
2019-06-15T18:47:07.290Z,100912.01
2019-06-15T18:52:12.750Z,100915.47
2019-06-15T18:57:18.284Z,100922.94
2019-06-15T19:02:23.795Z,100925.48
2019-06-15T19:07:29.343Z,100930.77
2019-06-15T19:12:34.833Z,100934.41
2019-06-15T19:17:40.547Z,100943.84
2019-06-15T19:22:47.582Z,100952.95
2019-06-15T19:27:53.156Z,100953.51
2019-06-15T19:32:58.611Z,100955.77
2019-06-15T19:38:06.333Z,100967.24
2019-06-15T19:43:11.211Z,100966.65
2019-06-15T19:48:17.359Z,100965.70
2019-06-15T19:53:22.952Z,100978.63
2019-06-15T19:58:28.466Z,100980.98
2019-06-15T20:03:36.089Z,100988.73
2019-06-15T20:08:41.099Z,100991.55
2019-06-15T20:13:47.471Z,100995.23
2019-06-15T20:18:53.045Z,100999.64
2019-06-15T20:23:58.625Z,101015.86
2019-06-15T20:29:04.061Z,101012.16
2019-06-15T20:34:09.513Z,101014.62
2019-06-15T20:39:16.496Z,101024.47
2019-06-15T20:44:22.144Z,101022.78
2019-06-15T20:49:27.717Z,101035.17
2019-06-15T20:54:33.280Z,101041.94
2019-06-15T20:59:38.775Z,101048.53
2019-06-15T21:04:44.339Z,101050.63
2019-06-15T21:09:49.786Z,101058.65
2019-06-15T21:14:56.158Z,101068.06
2019-06-15T21:20:01.703Z,101071.55
2019-06-15T21:25:07.298Z,101073.27
2019-06-15T21:30:12.775Z,101084.30
2019-06-15T21:35:18.288Z,101090.73
2019-06-15T21:40:23.848Z,101094.48
2019-06-15T21:45:29.391Z,101100.71
2019-06-15T21:50:36.221Z,101101.91
2019-06-15T21:55:41.953Z,101107.69
2019-06-15T22:01:33.303Z,101114.18
2019-06-15T22:06:38.823Z,101115.48
2019-06-15T22:11:47.116Z,101123.87
2019-06-15T22:16:52.799Z,101129.31
2019-06-15T22:21:58.310Z,101140.95
2019-06-15T22:27:03.793Z,101145.94
2019-06-15T22:32:09.369Z,101160.80
2019-06-15T22:37:17.191Z,101168.91
2019-06-15T22:42:22.016Z,101167.69
2019-06-15T22:47:27.507Z,101172.15
2019-06-15T22:52:33.026Z,101179.06
2019-06-15T22:57:38.481Z,101183.66
2019-06-15T23:02:46.101Z,101185.41
2019-06-15T23:07:51.267Z,101185.52
2019-06-15T23:12:56.916Z,101185.10
2019-06-15T23:18:02.492Z,101201.74
2019-06-15T23:23:08.056Z,101208.85
2019-06-15T23:28:13.599Z,101202.80
2019-06-15T23:33:19.061Z,101207.13
2019-06-15T23:38:26.748Z,101206.76
2019-06-15T23:43:31.778Z,101208.16
2019-06-15T23:48:37.234Z,101211.25
2019-06-15T23:53:42.722Z,101217.69
2019-06-15T23:58:48.160Z,101215.70
